Hanjin Chongqing — 3EPJ2 — position and weather

sailwx.info

Track history (hours):
 
Tides and Currents Weather Stations Pressure Air Temp Water Temp Dewpoint Dewpoint Depression Visibility Wind Speed Wind Dir Waves Ship Positions

Hanjin Chongqing

Last reported at 2015-Apr-24 15:07 UTC. Time now 2015-Apr-28 10:18 UTC.
Position N 02°06' E 102°04'.

Length 304 m; draft 12 m.

Type: Cargo ship. MMSI: 353957976.

Date/timePositionNaut miles runAvg speedWind from/ knotsBaromVisibWave heightAir tempDewpointWater temp
2015-Apr-24 15:07N 02°06' E 102°04'713.2
2015-Apr-24 14:33N 02°01' E 102°10'1313.4
2015-Apr-24 13:33N 01°54' E 102°20'1414.3
2015-Apr-24 12:33N 01°48' E 102°34'1614.8
2015-Apr-24 11:29N 01°42' E 102°48'6013.6
2015-Apr-24 07:07N 01°11' E 103°39'712.6
2015-Apr-24 06:33N 01°10' E 103°46'8 8.0
2015-Apr-24 05:33N 01°16' E 103°52'1 0.6
2015-Apr-24 04:32N 01°16' E 103°51'0 0.0
2015-Apr-24 03:33N 01°16' E 103°51'0 0.0
2015-Apr-24 02:12N 01°16' E 103°51'0 0.0
2015-Apr-24 01:29N 01°16' E 103°51'0 0.0
2015-Apr-24 00:29N 01°16' E 103°51'0 0.0
2015-Apr-23 23:29N 01°16' E 103°51'0 0.0
2015-Apr-23 22:32N 01°16' E 103°51'0 0.0
2015-Apr-23 21:32N 01°16' E 103°51'0 0.0
2015-Apr-23 20:30N 01°16' E 103°51'0 0.0
2015-Apr-23 19:32N 01°16' E 103°51'0 0.0
2015-Apr-23 18:29N 01°16' E 103°51'0 0.0
2015-Apr-23 17:29N 01°16' E 103°51'0 0.0
2015-Apr-23 16:32N 01°16' E 103°51'0 0.0
2015-Apr-23 15:20N 01°16' E 103°51'0 0.0
2015-Apr-23 14:29N 01°16' E 103°51'0 0.0
2015-Apr-23 13:29N 01°16' E 103°51'0 0.0
2015-Apr-23 12:32N 01°16' E 103°51'0 0.0
2015-Apr-23 11:14N 01°16' E 103°51'0 0.0
2015-Apr-23 10:17N 01°16' E 103°51'0 0.0
2015-Apr-23 09:32N 01°16' E 103°51'0 0.0
2015-Apr-23 08:32N 01°16' E 103°51'0 0.0
2015-Apr-23 07:33N 01°16' E 103°51'0 0.0
2015-Apr-23 06:32N 01°16' E 103°51'0 0.0
2015-Apr-23 05:29N 01°16' E 103°51'0 0.0
2015-Apr-23 04:29N 01°16' E 103°51'0 0.0
2015-Apr-23 03:24N 01°16' E 103°51'0 0.0
2015-Apr-23 02:29N 01°16' E 103°51'0 0.0
2015-Apr-23 01:32N 01°16' E 103°51'1 1.2
2015-Apr-23 00:33N 01°15' E 103°52'3 2.9
2015-Apr-22 23:33N 01°14' E 103°54'7 7.3
2015-Apr-22 22:33N 01°15' E 104°02'1211.4
2015-Apr-22 21:33N 01°17' E 104°13'  
2015-Apr-19 06:13N 21°54' E 114°30'1218.2
2015-Apr-19 05:33N 22°06' E 114°33'1817.8
2015-Apr-19 04:33N 22°24' E 114°29'1413.6
2015-Apr-19 03:31N 22°34' E 114°18'3 1.9
2015-Apr-19 02:05N 22°34' E 114°16'0 0.0
2015-Apr-19 01:30N 22°34' E 114°16'0 0.0
2015-Apr-19 00:30N 22°34' E 114°16'0 0.0
2015-Apr-18 22:05N 22°34' E 114°16'0 0.0
2015-Apr-18 21:30N 22°34' E 114°16'0 0.0
2015-Apr-18 20:30N 22°34' E 114°16'0 0.0
2015-Apr-18 18:23N 22°34' E 114°16'0 0.0
2015-Apr-18 17:11N 22°34' E 114°16'0 0.0
2015-Apr-18 16:17N 22°34' E 114°16'21 3.7
2015-Apr-18 10:33N 22°21' E 114°34'12317.4
2015-Apr-18 03:31N 22°43' E 116°44'1313.4
2015-Apr-18 02:33N 22°48' E 116°57'1613.2
2015-Apr-18 01:22N 22°57' E 117°11'6413.2
2015-Apr-17 20:29N 23°39' E 118°04'1414.7
2015-Apr-17 19:33N 23°47' E 118°16'1614.8
2015-Apr-17 18:30N 23°57' E 118°29'2914.9
2015-Apr-17 16:33N 24°15' E 118°54'1615.1
2015-Apr-17 15:29N 24°26' E 119°07'1414.7
2015-Apr-17 14:33N 24°35' E 119°18'1414.0
2015-Apr-17 13:33N 24°44' E 119°30'1513.4
2015-Apr-17 12:27N 24°53' E 119°43'1314.2
2015-Apr-17 11:31N 25°02' E 119°54'1414.0
2015-Apr-17 10:32N 25°13' E 120°03'1714.4
2015-Apr-17 09:20N 25°26' E 120°15'1114.0
2015-Apr-17 08:33N 25°36' E 120°21'22414.0
2015-Apr-16 16:32N 28°51' E 122°25'1514.8
2015-Apr-16 15:33N 29°06' E 122°28'1514.6
2015-Apr-16 14:33N 29°20' E 122°30'1413.7
2015-Apr-16 13:31N 29°34' E 122°29'1413.8
2015-Apr-16 12:31N 29°45' E 122°19'1010.5
2015-Apr-16 11:32N 29°53' E 122°11'1111.5
2015-Apr-16 10:33N 29°57' E 121°59'6 6.0
2015-Apr-16 09:31N 29°56' E 121°52'0 0.0
2015-Apr-16 08:28N 29°56' E 121°52'0 0.0
2015-Apr-16 07:28N 29°56' E 121°52'0 0.0
2015-Apr-16 06:13N 29°56' E 121°52'0 0.0
2015-Apr-16 05:31N 29°56' E 121°52'0 0.0
2015-Apr-16 02:19N 29°56' E 121°52'0 0.0
2015-Apr-16 01:31N 29°56' E 121°52'0 0.0
2015-Apr-16 00:19N 29°56' E 121°52'1 0.9
2015-Apr-15 23:33N 29°57' E 121°52'9 8.9
2015-Apr-15 22:33N 29°56' E 122°02'1312.4
2015-Apr-15 21:32N 29°49' E 122°14'1010.1
2015-Apr-15 20:32N 29°44' E 122°24'2 0.8
2015-Apr-15 18:20N 29°44' E 122°26'0 0.1
2015-Apr-15 17:20N 29°44' E 122°26'0 0.1
2015-Apr-15 12:08N 29°44' E 122°26'0 0.0
2015-Apr-15 07:14N 29°44' E 122°26'0 0.0
2015-Apr-15 00:08N 29°44' E 122°26'0 0.2
2015-Apr-14 23:14N 29°44' E 122°26'0 0.1
2015-Apr-14 22:20N 29°44' E 122°26'0 0.0
2015-Apr-14 21:14N 29°44' E 122°26'0 0.1
2015-Apr-14 20:14N 29°44' E 122°26'1 0.2
2015-Apr-14 15:33N 29°44' E 122°27'  
Track history (hours):
 
Tides and Currents Weather Stations Pressure Air Temp Water Temp Dewpoint Dewpoint Depression Visibility Wind Speed Wind Dir Waves Ship Positions

Hanjin Chongqing

Last reported at 2015-Apr-24 15:07 UTC. Time now 2015-Apr-28 10:18 UTC.
Position N 02°06' E 102°04'.

Length 304 m; draft 12 m.

Type: Cargo ship. MMSI: 353957976.

Date/timePositionNaut miles runAvg speedWind from/ knotsBaromVisibWave heightAir tempDewpointWater temp
2015-Apr-24 15:07N 02°06' E 102°04'713.2
2015-Apr-24 14:33N 02°01' E 102°10'1313.4
2015-Apr-24 13:33N 01°54' E 102°20'1414.3
2015-Apr-24 12:33N 01°48' E 102°34'1614.8
2015-Apr-24 11:29N 01°42' E 102°48'6013.6
2015-Apr-24 07:07N 01°11' E 103°39'712.6
2015-Apr-24 06:33N 01°10' E 103°46'8 8.0
2015-Apr-24 05:33N 01°16' E 103°52'1 0.6
2015-Apr-24 04:32N 01°16' E 103°51'0 0.0
2015-Apr-24 03:33N 01°16' E 103°51'0 0.0
2015-Apr-24 02:12N 01°16' E 103°51'0 0.0
2015-Apr-24 01:29N 01°16' E 103°51'0 0.0
2015-Apr-24 00:29N 01°16' E 103°51'0 0.0
2015-Apr-23 23:29N 01°16' E 103°51'0 0.0
2015-Apr-23 22:32N 01°16' E 103°51'0 0.0
2015-Apr-23 21:32N 01°16' E 103°51'0 0.0
2015-Apr-23 20:30N 01°16' E 103°51'0 0.0
2015-Apr-23 19:32N 01°16' E 103°51'0 0.0
2015-Apr-23 18:29N 01°16' E 103°51'0 0.0
2015-Apr-23 17:29N 01°16' E 103°51'0 0.0
2015-Apr-23 16:32N 01°16' E 103°51'0 0.0
2015-Apr-23 15:20N 01°16' E 103°51'0 0.0
2015-Apr-23 14:29N 01°16' E 103°51'0 0.0
2015-Apr-23 13:29N 01°16' E 103°51'0 0.0
2015-Apr-23 12:32N 01°16' E 103°51'0 0.0
2015-Apr-23 11:14N 01°16' E 103°51'0 0.0
2015-Apr-23 10:17N 01°16' E 103°51'0 0.0
2015-Apr-23 09:32N 01°16' E 103°51'0 0.0
2015-Apr-23 08:32N 01°16' E 103°51'0 0.0
2015-Apr-23 07:33N 01°16' E 103°51'0 0.0
2015-Apr-23 06:32N 01°16' E 103°51'0 0.0
2015-Apr-23 05:29N 01°16' E 103°51'0 0.0
2015-Apr-23 04:29N 01°16' E 103°51'0 0.0
2015-Apr-23 03:24N 01°16' E 103°51'0 0.0
2015-Apr-23 02:29N 01°16' E 103°51'0 0.0
2015-Apr-23 01:32N 01°16' E 103°51'1 1.2
2015-Apr-23 00:33N 01°15' E 103°52'3 2.9
2015-Apr-22 23:33N 01°14' E 103°54'7 7.3
2015-Apr-22 22:33N 01°15' E 104°02'1211.4
2015-Apr-22 21:33N 01°17' E 104°13'  
2015-Apr-19 06:13N 21°54' E 114°30'1218.2
2015-Apr-19 05:33N 22°06' E 114°33'1817.8
2015-Apr-19 04:33N 22°24' E 114°29'1413.6
2015-Apr-19 03:31N 22°34' E 114°18'3 1.9
2015-Apr-19 02:05N 22°34' E 114°16'0 0.0
2015-Apr-19 01:30N 22°34' E 114°16'0 0.0
2015-Apr-19 00:30N 22°34' E 114°16'0 0.0
2015-Apr-18 22:05N 22°34' E 114°16'0 0.0
2015-Apr-18 21:30N 22°34' E 114°16'0 0.0
2015-Apr-18 20:30N 22°34' E 114°16'0 0.0
2015-Apr-18 18:23N 22°34' E 114°16'0 0.0
2015-Apr-18 17:11N 22°34' E 114°16'0 0.0
2015-Apr-18 16:17N 22°34' E 114°16'21 3.7
2015-Apr-18 10:33N 22°21' E 114°34'12317.4
2015-Apr-18 03:31N 22°43' E 116°44'1313.4
2015-Apr-18 02:33N 22°48' E 116°57'1613.2
2015-Apr-18 01:22N 22°57' E 117°11'6413.2
2015-Apr-17 20:29N 23°39' E 118°04'1414.7
2015-Apr-17 19:33N 23°47' E 118°16'1614.8
2015-Apr-17 18:30N 23°57' E 118°29'2914.9
2015-Apr-17 16:33N 24°15' E 118°54'1615.1
2015-Apr-17 15:29N 24°26' E 119°07'1414.7
2015-Apr-17 14:33N 24°35' E 119°18'1414.0
2015-Apr-17 13:33N 24°44' E 119°30'1513.4
2015-Apr-17 12:27N 24°53' E 119°43'1314.2
2015-Apr-17 11:31N 25°02' E 119°54'1414.0
2015-Apr-17 10:32N 25°13' E 120°03'1714.4
2015-Apr-17 09:20N 25°26' E 120°15'1114.0
2015-Apr-17 08:33N 25°36' E 120°21'22414.0
2015-Apr-16 16:32N 28°51' E 122°25'1514.8
2015-Apr-16 15:33N 29°06' E 122°28'1514.6
2015-Apr-16 14:33N 29°20' E 122°30'1413.7
2015-Apr-16 13:31N 29°34' E 122°29'1413.8
2015-Apr-16 12:31N 29°45' E 122°19'1010.5
2015-Apr-16 11:32N 29°53' E 122°11'1111.5
2015-Apr-16 10:33N 29°57' E 121°59'6 6.0
2015-Apr-16 09:31N 29°56' E 121°52'0 0.0
2015-Apr-16 08:28N 29°56' E 121°52'0 0.0
2015-Apr-16 07:28N 29°56' E 121°52'0 0.0
2015-Apr-16 06:13N 29°56' E 121°52'0 0.0
2015-Apr-16 05:31N 29°56' E 121°52'0 0.0
2015-Apr-16 02:19N 29°56' E 121°52'0 0.0
2015-Apr-16 01:31N 29°56' E 121°52'0 0.0
2015-Apr-16 00:19N 29°56' E 121°52'1 0.9
2015-Apr-15 23:33N 29°57' E 121°52'9 8.9
2015-Apr-15 22:33N 29°56' E 122°02'1312.4
2015-Apr-15 21:32N 29°49' E 122°14'1010.1
2015-Apr-15 20:32N 29°44' E 122°24'2 0.8
2015-Apr-15 18:20N 29°44' E 122°26'0 0.1
2015-Apr-15 17:20N 29°44' E 122°26'0 0.1
2015-Apr-15 12:08N 29°44' E 122°26'0 0.0
2015-Apr-15 07:14N 29°44' E 122°26'0 0.0
2015-Apr-15 00:08N 29°44' E 122°26'0 0.2
2015-Apr-14 23:14N 29°44' E 122°26'0 0.1
2015-Apr-14 22:20N 29°44' E 122°26'0 0.0
2015-Apr-14 21:14N 29°44' E 122°26'0 0.1
2015-Apr-14 20:14N 29°44' E 122°26'1 0.2
2015-Apr-14 15:33N 29°44' E 122°27'  

Dump ship's entire track history